Flight Track Log - Related Links

Times and Time Zones

All times are in EDT time to prevent confusion due to time zone crossing. See the EJA922 flight status page for this flight to view local times or setup timezone preferences in your user account.

Time Position Orientation Groundspeed Altitude Reporting Facility
EDT Latitude Longitude Course Direction KTS MPH feet Rate Location/Type
Tue 08:32:56 AM 32.3703 -64.7119 307° West 471 542 1,700  Level New York Center
Tue 08:33:56 AM 32.3803 -64.7850 279° West 305 351 5,400 4,387 Climbing New York Center
Tue 08:34:55 AM 32.3931 -64.8725 280° West 269 310 10,400 3,897 Climbing New York Center
Tue 08:35:53 AM 32.4106 -64.9719 282° West 295 339 13,000 2,471 Climbing New York Center
Tue 08:36:54 AM 32.4256 -65.0717 280° West 337 388 15,300 2,132 Climbing New York Center
Tue 08:37:54 AM 32.4461 -65.1981 281° West 366 421 17,300 1,721 Climbing New York Center
Tue 08:38:00 AM 32.8089 -65.3888 307° West  Level FlightAware Approximate
Tue 08:38:56 AM 32.4708 -65.3217 283° West 372 428 18,800  Level New York Center
Tue 08:39:54 AM 32.5350 -65.4064 312° West 372 428 20,200 1,525 Climbing New York Center
Tue 08:40:54 AM 32.6169 -65.5144 312° West 402 463 21,800 1,388 Climbing New York Center
Tue 08:41:55 AM 32.6897 -65.6083 313° West 422 486 23,000 1,230 Climbing New York Center
Tue 08:42:56 AM 32.7781 -65.7214 313° West 422 486 24,300 1,250 Climbing New York Center
Tue 08:43:55 AM 32.8553 -65.8256 311° West 430 495 25,500 1,200 Climbing New York Center
Tue 08:44:56 AM 32.9325 -65.9250 313° West 442 509 26,700 1,300 Climbing New York Center
Tue 08:45:55 AM 33.0186 -66.0461 310° West 448 516 28,100 1,333 Climbing New York Center
Tue 08:46:53 AM 33.1064 -66.1575 313° West 448 516 29,300 1,200 Climbing New York Center
Tue 08:47:55 AM 33.1769 -66.2603 309° West 448 516 30,500 1,317 Climbing New York Center
Tue 08:48:56 AM 33.2733 -66.3817 314° West 454 522 32,000 1,488 Climbing New York Center
Tue 08:49:56 AM 33.3461 -66.4897 309° West 464 534 33,500 1,949 Climbing New York Center
Tue 08:50:53 AM 33.4400 -66.6117 313° West 464 534 35,800 2,186 Climbing New York Center
Tue 08:51:54 AM 33.5233 -66.7297 310° West 464 534 37,800 2,016 Climbing New York Center
Tue 08:52:55 AM 33.5953 -66.8283 311° West 454 522 39,900 2,016 Climbing New York Center
Tue 08:53:56 AM 33.6867 -66.9436 314° West 438 504 41,900 1,537 Climbing New York Center
Tue 08:54:56 AM 33.7592 -67.0578 307° West 438 504 43,000 555 Climbing New York Center
Tue 08:55:55 AM 33.8411 -67.1489 317° Northwest 443 510 43,000  Level New York Center
Tue 08:56:55 AM 33.9306 -67.2800 309° West 461 531 43,000  Level New York Center
Tue 08:57:56 AM 34.0106 -67.3844 313° West 473 544 43,000  Level New York Center
Tue 08:58:54 AM 34.0936 -67.5164 307° West 459 528 43,000  Level New York Center
Tue 09:22:08 AM 36.1667 -69.4500 322° Northwest 444 511 43,000  Level New York Oceanic (ODAPS)
Tue 09:31:53 AM 37.3683 -70.6517 330° Northwest 489 563 43,000  Level New York Center
Tue 09:32:00 AM 37.4276 -70.6910 321° Northwest 444 511 43,000  Level FlightAware Transoceanic
Tue 09:32:54 AM 37.4747 -70.7328 329° Northwest 459 528 43,000  Level New York Center
Tue 09:33:00 AM 37.5240 -70.7882 321° Northwest 444 511 43,000  Level FlightAware Transoceanic
Tue 09:33:55 AM 37.5728 -70.8456 318° Northwest 464 534 43,000  Level New York Center
Tue 09:34:00 AM 37.6204 -70.8857 321° Northwest 444 511 43,000  Level FlightAware Transoceanic
Tue 09:34:54 AM 37.6769 -70.9453 323° Northwest 469 540 43,000  Level New York Center
Tue 09:35:00 AM 37.7167 -70.9833 330° Northwest 444 511 43,000  Level FlightAware Transoceanic
Tue 09:35:54 AM 37.7831 -71.0350 326° Northwest 469 540 43,000  Level New York Center
Tue 09:36:00 AM 37.8351 -71.0706 330° Northwest 444 511 43,000  Level FlightAware Transoceanic
Tue 09:36:54 AM 37.8892 -71.1169 329° Northwest 458 527 43,000  Level New York Center
Tue 09:37:54 AM 37.9994 -71.1914 332° Northwest 453 521 43,000  Level New York Center
Tue 09:38:53 AM 38.1117 -71.2792 328° Northwest 453 521 43,000  Level New York Center
Tue 09:39:54 AM 38.2219 -71.3567 331° Northwest 459 528 43,000  Level New York Center
Tue 09:40:55 AM 38.3278 -71.4422 328° Northwest 453 521 43,000  Level New York Center
Tue 09:41:55 AM 38.4358 -71.5256 329° Northwest 453 521 43,000  Level New York Center
Tue 09:42:56 AM 38.5497 -71.6039 332° Northwest 453 521 43,000  Level New York Center
Tue 09:43:53 AM 38.6597 -71.6903 328° Northwest 459 528 43,000  Level New York Center
Tue 09:44:54 AM 38.7675 -71.7797 327° Northwest 459 528 43,000  Level New York Center
Tue 09:45:56 AM 38.8792 -71.8558 332° Northwest 459 528 43,000 -350 Level New York Center
Tue 09:46:54 AM 38.9911 -71.9406 330° Northwest 464 534 42,300 -1,109 Descending New York Center
Tue 09:47:55 AM 39.0964 -72.0253 328° Northwest 459 528 40,800 -1,623 Descending New York Center
Tue 09:48:56 AM 39.1956 -72.1128 326° Northwest 451 519 39,000 -2,150 Descending New York Center
Tue 09:49:55 AM 39.2967 -72.2058 325° Northwest 437 503 36,500 -2,695 Descending New York Center
Tue 09:50:54 AM 39.4078 -72.3131 323° Northwest 463 533 33,700 -2,750 Descending New York Center
Tue 09:51:55 AM 39.5189 -72.4178 324° Northwest 484 557 31,000 -2,683 Descending New York Center
Tue 09:52:57 AM 39.6278 -72.5336 321° Northwest 497 572 28,200 -2,521 Descending New York Center
Tue 09:53:54 AM 39.7072 -72.6517 311° West 497 572 26,000 -2,593 Descending New York Center
Tue 09:54:55 AM 39.7883 -72.7808 309° West 487 560 23,100 -2,803 Descending New York Center
Tue 09:55:56 AM 39.8692 -72.9156 308° West 477 549 20,300 -2,898 Descending New York Center
Tue 09:56:53 AM 39.9461 -73.0344 310° West 455 524 17,400 -2,800 Descending New York Center
Tue 09:57:56 AM 40.0447 -73.1056 331° Northwest 398 458 14,700 -2,146 Descending New York Center
Tue 09:58:56 AM 40.1539 -73.0658 16° North 378 435 13,000 -1,820 Descending New York Center
Tue 09:59:58 AM 40.2719 -72.9675 32° Northeast 428 493 11,000 -976 Descending Boston Center
Tue 10:00:59 AM 40.3686 -72.8883 32° Northeast 413 475 11,000 -581 Level Boston Center
Tue 10:02:02 AM 40.4464 -72.8258 31° Northeast 331 381 9,800 -968 Descending Boston Center
Tue 10:03:03 AM 40.5225 -72.7650 31° Northeast 322 371 9,000 -585 Descending Boston Center
Tue 10:04:05 AM 40.6031 -72.7175 24° Northeast 322 371 8,600 -488 Descending Boston Center
Tue 10:05:06 AM 40.6769 -72.7583 337° Northwest 290 334 8,000 -1,115 Descending Boston Center
Tue 10:06:41 AM 40.8000 -72.8500 331° Northwest 284 327 5,700 -1,154 Descending New York TRACON
Tue 10:07:42 AM 40.8667 -72.9000 330° Northwest 282 325 5,000 -347 Descending New York TRACON
Tue 10:08:42 AM 40.9333 -72.9500 330° Northwest 277 319 5,000  Level New York TRACON
Tue 10:09:47 AM 41.0000 -73.0000 330° Northwest 270 311 5,000  Level New York TRACON
Tue 10:10:47 AM 41.0500 -73.0667 315° West 266 306 5,000  Level New York TRACON
Tue 10:11:47 AM 41.0833 -73.1667 294° West 270 311 5,000 -350 Level New York TRACON
Tue 10:12:47 AM 41.1167 -73.2500 298° West 247 284 4,300 -496 Descending New York TRACON
Tue 10:13:48 AM 41.1333 -73.3333 285° West 250 288 4,000 -150 Descending New York TRACON
Tue 10:14:47 AM 41.1667 -73.4167 298° West 247 284 4,000 -151 Level New York TRACON
Tue 10:15:47 AM 41.1500 -73.4667 246° West 197 227 3,700 -750 Descending New York TRACON
Tue 10:16:47 AM 41.1000 -73.4667 180° South 184 212 2,500 -843 Descending New York TRACON
Tue 10:17:48 AM 41.0500 -73.4500 166° South 180 207 2,000 -238 Descending New York TRACON
Tue 10:18:53 AM 41.0000 -73.4833 207° Southwest 171 197 2,000  Level New York TRACON
Tue 10:19:53 AM 40.9667 -73.5333 229° Southwest 171 197 2,000  Level New York TRACON
Tue 10:20:48 AM 40.9500 -73.5833 246° West 177 204 2,000  Level New York TRACON
Tue 10:21:54 AM 40.9667 -73.6333 294° West 180 207 2,000 -240 Level New York TRACON
Tue 10:22:53 AM 41.0167 -73.6667 333° Northwest 162 186 1,500 -672 Descending New York TRACON
Tue 10:23:59 AM 41.0500 -73.7000 323° Northwest 136 157 600 -818 Descending New York TRACON

Login

Don't have an account? Register now (free) for customized features, flight alerts, and more!